Time;durP1;ratioP1;P1;durP2;ratioP2;P2;SDS_P1;SDS_P2;PMS_P1;PMS_P2;Temp;Humidity;BMP_temperature;BMP_pressure;BME280_temperature;BME280_humidity;BME280_pressure;Samples;Min_cycle;Max_cycle;Signal;HPM_P1;HPM_P2
2023/03/21 00:00:32;;;;;;;147.70;44.40;;;9.30;99.90;;;;;;5070286;28;20831;-93
2023/03/21 00:02:57;;;;;;;157.67;44.63;;;9.60;99.90;;;;;;5087281;28;20414;-93
2023/03/21 00:05:23;;;;;;;166.43;46.70;;;9.50;99.90;;;;;;5087569;28;20398;-94
2023/03/21 00:07:49;;;;;;;196.32;46.85;;;9.80;99.90;;;;;;5070582;28;20410;-93
2023/03/21 00:10:15;;;;;;;206.93;48.95;;;9.30;99.90;;;;;;5086800;28;20886;-94
2023/03/21 00:12:41;;;;;;;212.20;50.97;;;9.30;99.90;;;;;;5088344;28;20496;-93
2023/03/21 00:15:10;;;;;;;221.15;52.13;;;9.20;99.90;;;;;;5086713;28;20394;-93
2023/03/21 00:17:38;;;;;;;211.73;49.47;;;9.30;99.90;;;;;;5087596;28;20505;-94
2023/03/21 00:20:05;;;;;;;222.30;49.55;;;9.10;99.90;;;;;;5087427;28;20402;-92
2023/03/21 00:22:32;;;;;;;220.00;49.03;;;9.30;99.90;;;;;;5087044;28;20409;-94
2023/03/21 00:24:58;;;;;;;156.00;42.08;;;9.70;99.90;;;;;;5070217;28;20459;-92
2023/03/21 00:27:24;;;;;;;173.50;42.47;;;9.30;99.90;;;;;;5086719;28;20402;-94
2023/03/21 00:29:50;;;;;;;161.30;42.20;;;9.30;99.90;;;;;;5088038;28;20451;-93
2023/03/21 00:32:16;;;;;;;184.63;43.88;;;9.30;99.90;;;;;;5086353;28;20390;-94
2023/03/21 00:34:42;;;;;;;238.68;47.60;;;9.30;99.90;;;;;;5087863;28;20394;-93
2023/03/21 00:37:10;;;;;;;281.05;51.55;;;9.50;99.90;;;;;;5086464;28;20425;-93
2023/03/21 00:39:36;;;;;;;296.00;51.42;;;9.50;99.90;;;;;;5086731;28;20394;-94
2023/03/21 00:42:02;;;;;;;271.52;51.35;;;9.20;99.90;;;;;;5086941;28;20406;-93
2023/03/21 00:44:28;;;;;;;267.65;51.38;;;9.20;99.90;;;;;;5086931;28;20397;-92
2023/03/21 00:46:54;;;;;;;267.38;53.17;;;9.30;99.90;;;;;;5087609;28;20435;-93
2023/03/21 00:49:20;;;;;;;268.80;51.90;;;9.40;99.90;;;;;;5086362;28;20441;-92
2023/03/21 00:51:50;;;;;;;243.48;49.25;;;9.40;99.90;;;;;;5071085;28;20916;-93
2023/03/21 00:54:15;;;;;;;289.52;50.67;;;9.40;99.90;;;;;;5086042;28;20842;-93
2023/03/21 00:56:41;;;;;;;197.03;45.97;;;9.30;99.90;;;;;;5087172;28;20430;-93
2023/03/21 00:59:07;;;;;;;211.43;46.22;;;9.30;99.90;;;;;;5086748;28;20917;-94
2023/03/21 01:01:33;;;;;;;173.20;41.65;;;9.80;99.90;;;;;;5086551;28;20423;-93
2023/03/21 01:04:04;;;;;;;111.05;34.97;;;9.40;99.90;;;;;;5086865;28;20884;-93
2023/03/21 01:06:40;;;;;;;127.72;34.90;;;9.30;99.90;;;;;;5086016;28;20421;-94
2023/03/21 01:09:11;;;;;;;104.78;33.10;;;9.30;99.90;;;;;;5086554;28;20414;-93
2023/03/21 01:11:37;;;;;;;105.07;31.95;;;8.80;99.90;;;;;;5085311;28;20398;-93
2023/03/21 01:14:02;;;;;;;108.97;32.80;;;9.20;99.90;;;;;;5085735;28;20942;-94
2023/03/21 01:16:28;;;;;;;93.63;29.77;;;9.30;99.90;;;;;;5084955;28;20418;-92
2023/03/21 01:18:54;;;;;;;99.88;31.10;;;9.30;99.90;;;;;;5068179;28;20501;-91
2023/03/21 01:21:20;;;;;;;113.15;33.83;;;9.70;99.90;;;;;;5085393;28;20460;-91
2023/03/21 01:23:46;;;;;;;120.40;34.55;;;9.30;99.90;;;;;;5084953;28;20402;-94
2023/03/21 01:26:13;;;;;;;141.05;37.53;;;9.30;99.90;;;;;;5086028;28;20417;-93
2023/03/21 01:28:41;;;;;;;179.23;40.15;;;9.80;99.90;;;;;;5084323;28;20402;-93
2023/03/21 01:31:07;;;;;;;176.90;40.85;;;9.30;99.90;;;;;;5085528;28;20463;-92
2023/03/21 01:33:33;;;;;;;175.93;42.85;;;9.30;99.90;;;;;;5085455;28;20401;-93
2023/03/21 01:36:00;;;;;;;198.63;43.28;;;9.30;99.90;;;;;;5084811;28;20437;-94
2023/03/21 01:38:25;;;;;;;164.73;40.80;;;9.40;99.90;;;;;;5084952;28;20912;-94
2023/03/21 01:40:52;;;;;;;145.45;39.38;;;9.30;99.90;;;;;;5067188;28;20439;-93
2023/03/21 01:43:22;;;;;;;176.63;40.22;;;9.20;99.90;;;;;;5084580;28;20402;-93
2023/03/21 01:46:20;;;;;;;149.95;38.83;;;9.30;99.90;;;;;;5083985;28;20445;-93
2023/03/21 01:48:52;;;;;;;152.15;37.97;;;9.30;99.90;;;;;;5084932;28;20402;-93
2023/03/21 01:51:20;;;;;;;145.88;38.42;;;9.30;99.90;;;;;;5084850;28;21445;-93
2023/03/21 01:53:47;;;;;;;136.90;36.70;;;9.30;99.90;;;;;;5067726;28;20459;-93
2023/03/21 01:56:25;;;;;;;137.73;37.25;;;9.80;99.90;;;;;;5084599;28;20413;-93
2023/03/21 01:58:54;;;;;;;120.25;35.90;;;9.40;99.90;;;;;;5083741;28;20402;-92
2023/03/21 02:01:21;;;;;;;121.00;34.90;;;9.40;99.90;;;;;;5085175;28;20410;-94
2023/03/21 02:03:50;;;;;;;106.93;33.22;;;9.70;99.90;;;;;;5084569;28;20424;-93
2023/03/21 02:06:35;;;;;;;115.68;34.13;;;9.50;99.90;;;;;;5084270;28;20394;-93
2023/03/21 02:09:07;;;;;;;107.57;32.08;;;9.30;99.90;;;;;;5012466;28;2049668;-92
2023/03/21 02:11:35;;;;;;;122.30;34.65;;;9.30;99.90;;;;;;5083998;28;20459;-92
2023/03/21 02:14:01;;;;;;;104.28;33.25;;;9.30;99.90;;;;;;5086083;28;20409;-94
2023/03/21 02:16:45;;;;;;;102.40;32.53;;;9.40;99.90;;;;;;5084654;28;20452;-92
2023/03/21 02:19:23;;;;;;;90.78;31.30;;;9.40;99.90;;;;;;5067874;28;20418;-93
2023/03/21 02:22:17;;;;;;;88.15;30.73;;;9.60;99.90;;;;;;5068136;28;20405;-90
2023/03/21 02:24:46;;;;;;;89.43;30.10;;;9.40;99.90;;;;;;5060379;28;20871;-92
2023/03/21 02:27:20;;;;;;;82.50;29.05;;;9.40;99.90;;;;;;5069186;28;20434;-93
2023/03/21 02:30:08;;;;;;;68.50;26.52;;;9.40;99.90;;;;;;5084735;28;20441;-93
2023/03/21 02:33:05;;;;;;;81.57;27.65;;;9.40;99.90;;;;;;5067732;28;20409;-92
2023/03/21 02:35:34;;;;;;;63.40;25.42;;;9.40;99.90;;;;;;5068474;28;20468;-92
2023/03/21 02:38:13;;;;;;;62.97;23.80;;;9.40;99.90;;;;;;5083072;28;20390;-94
2023/03/21 02:40:48;;;;;;;60.27;24.00;;;9.30;99.90;;;;;;5082323;28;20441;-93
2023/03/21 02:43:14;;;;;;;78.03;26.42;;;9.40;99.90;;;;;;5068003;28;20921;-93
2023/03/21 02:46:09;;;;;;;79.45;27.10;;;9.40;99.90;;;;;;5084762;28;20469;-92
2023/03/21 02:48:41;;;;;;;74.20;26.23;;;9.40;99.90;;;;;;5085359;28;20446;-92
2023/03/21 02:51:11;;;;;;;68.00;24.67;;;9.50;99.90;;;;;;5084306;28;20758;-92
2023/03/21 02:53:41;;;;;;;65.05;24.13;;;9.40;99.90;;;;;;5084968;28;20429;-92
2023/03/21 02:56:11;;;;;;;62.35;23.95;;;9.60;99.90;;;;;;5083568;28;20422;-93
2023/03/21 02:58:39;;;;;;;66.68;24.10;;;9.40;99.90;;;;;;5084727;28;20398;-93
2023/03/21 03:01:07;;;;;;;61.90;23.15;;;9.40;99.90;;;;;;5085297;28;20402;-92
2023/03/21 03:03:35;;;;;;;68.97;24.55;;;9.40;99.90;;;;;;5084230;28;20461;-93
2023/03/21 03:06:08;;;;;;;62.85;24.38;;;9.50;99.90;;;;;;5085238;28;20413;-92
2023/03/21 03:09:08;;;;;;;69.35;25.48;;;9.40;99.90;;;;;;5084131;28;20410;-93
2023/03/21 03:11:38;;;;;;;72.65;26.42;;;9.40;99.90;;;;;;5067308;28;20523;-93
2023/03/21 03:14:17;;;;;;;60.83;24.30;;;9.40;99.90;;;;;;5084892;28;20402;-92
2023/03/21 03:16:42;;;;;;;59.93;24.57;;;9.40;99.90;;;;;;5083614;28;20932;-93
2023/03/21 03:19:13;;;;;;;56.17;24.53;;;9.40;99.90;;;;;;5068341;28;20453;-93
2023/03/21 03:21:46;;;;;;;59.88;24.85;;;9.60;99.90;;;;;;5100610;28;20398;-92
2023/03/21 03:24:19;;;;;;;67.13;26.27;;;9.50;99.90;;;;;;5083904;28;20430;-94
2023/03/21 03:26:55;;;;;;;69.43;26.27;;;9.80;99.90;;;;;;5084435;28;20410;-92
2023/03/21 03:29:23;;;;;;;73.90;27.98;;;9.50;99.90;;;;;;5083719;28;20426;-94
2023/03/21 03:31:53;;;;;;;86.55;29.23;;;9.70;99.90;;;;;;5085481;28;20421;-93
2023/03/21 03:34:22;;;;;;;78.60;29.08;;;9.40;99.90;;;;;;5083496;28;20402;-91
2023/03/21 03:36:55;;;;;;;75.72;29.40;;;9.40;99.90;;;;;;5084547;28;20920;-94
2023/03/21 03:39:30;;;;;;;66.50;27.35;;;9.80;99.90;;;;;;5083728;28;20398;-92
2023/03/21 03:42:05;;;;;;;73.88;29.00;;;9.70;99.90;;;;;;5084003;28;20410;-94
2023/03/21 03:44:32;;;;;;;73.45;29.67;;;9.50;99.90;;;;;;5084960;28;20422;-93
2023/03/21 03:47:03;;;;;;;72.75;29.58;;;9.70;99.90;;;;;;5083667;28;20398;-91
2023/03/21 03:49:34;;;;;;;60.05;27.67;;;9.60;99.90;;;;;;5084540;28;20455;-93
2023/03/21 03:52:03;;;;;;;58.10;26.40;;;9.60;99.90;;;;;;5083225;28;20614;-93
2023/03/21 03:54:50;;;;;;;55.90;26.50;;;9.50;99.90;;;;;;5083869;28;20479;-92
2023/03/21 03:57:17;;;;;;;55.67;25.77;;;9.50;99.90;;;;;;5084565;28;20426;-94
2023/03/21 03:59:44;;;;;;;69.97;28.45;;;9.70;99.90;;;;;;5083736;28;20480;-93
2023/03/21 04:02:10;;;;;;;73.43;28.38;;;9.60;99.90;;;;;;5084541;28;20515;-93
2023/03/21 04:04:36;;;;;;;68.27;26.47;;;9.50;99.90;;;;;;5066622;28;20961;-93
2023/03/21 04:07:02;;;;;;;59.30;25.07;;;9.90;99.90;;;;;;5068183;28;20516;-90
2023/03/21 04:09:29;;;;;;;58.45;24.83;;;9.70;99.90;;;;;;5087854;28;20757;-93
2023/03/21 04:11:55;;;;;;;61.73;25.80;;;9.60;99.90;;;;;;5087697;28;20893;-94
2023/03/21 04:14:22;;;;;;;60.65;24.95;;;9.60;99.90;;;;;;5087505;28;20414;-95
2023/03/21 04:16:48;;;;;;;71.10;26.02;;;9.50;99.90;;;;;;5086746;28;20425;-93
2023/03/21 04:19:14;;;;;;;72.73;26.23;;;9.50;99.90;;;;;;5103986;28;20394;-93
2023/03/21 04:21:41;;;;;;;69.72;25.25;;;9.50;99.90;;;;;;5086022;28;20437;-93
2023/03/21 04:24:07;;;;;;;71.32;25.30;;;9.60;99.90;;;;;;5071023;28;20390;-94
2023/03/21 04:26:34;;;;;;;86.68;27.60;;;9.50;99.90;;;;;;5087089;28;20411;-92
2023/03/21 04:29:01;;;;;;;87.82;27.83;;;9.50;99.90;;;;;;5087813;28;20402;-92
2023/03/21 04:31:29;;;;;;;92.28;28.05;;;10.00;99.90;;;;;;5086568;28;20494;-92
2023/03/21 04:33:56;;;;;;;77.83;25.40;;;9.50;99.90;;;;;;5087050;28;20402;-93
2023/03/21 04:37:09;;;;;;;87.88;25.15;;;9.90;99.90;;;;;;5087555;28;20809;-90
2023/03/21 04:39:12;;;;;;;87.47;27.25;;;9.50;99.90;;;;;;5097976;28;20413;-93
2023/03/21 04:41:43;;;;;;;81.88;26.48;;;9.80;99.90;;;;;;5087551;28;20769;-92
2023/03/21 04:44:10;;;;;;;93.97;27.40;;;9.60;99.90;;;;;;5086471;28;20414;-94
2023/03/21 04:46:36;;;;;;;95.17;27.27;;;9.80;99.90;;;;;;5086509;28;20484;-92
2023/03/21 04:49:02;;;;;;;95.32;27.08;;;9.80;99.90;;;;;;5086960;28;20452;-93
2023/03/21 04:51:28;;;;;;;88.57;26.65;;;9.50;99.90;;;;;;5069965;28;20450;-93
2023/03/21 04:53:56;;;;;;;90.40;27.15;;;9.50;99.90;;;;;;5087657;28;20398;-94
2023/03/21 04:56:29;;;;;;;85.67;26.93;;;9.50;99.90;;;;;;5086030;28;20430;-93
2023/03/21 04:58:56;;;;;;;94.32;28.35;;;9.90;99.90;;;;;;5087278;28;20410;-92
2023/03/21 05:01:22;;;;;;;95.10;28.43;;;9.80;99.90;;;;;;5086635;28;20413;-92
2023/03/21 05:03:47;;;;;;;83.77;27.17;;;9.60;99.90;;;;;;5086801;28;20402;-93
2023/03/21 05:06:13;;;;;;;91.93;27.80;;;9.60;99.90;;;;;;5070181;28;20408;-93
2023/03/21 05:08:40;;;;;;;74.63;26.20;;;9.70;99.90;;;;;;5069035;28;20479;-93
2023/03/21 05:11:06;;;;;;;83.85;26.83;;;9.50;99.90;;;;;;5086884;28;20463;-91
2023/03/21 05:13:32;;;;;;;73.32;26.13;;;9.60;99.90;;;;;;5085723;28;20413;-93
2023/03/21 05:15:57;;;;;;;77.50;26.80;;;9.60;99.90;;;;;;5070284;28;20433;-93
2023/03/21 05:18:26;;;;;;;72.37;26.70;;;10.00;99.90;;;;;;5067805;28;20904;-93
2023/03/21 05:20:53;;;;;;;65.83;26.83;;;9.70;99.90;;;;;;5086575;28;20394;-93
2023/03/21 05:23:20;;;;;;;73.50;27.88;;;9.60;99.90;;;;;;5086158;28;20736;-92
2023/03/21 05:25:46;;;;;;;71.93;27.33;;;9.50;99.90;;;;;;5085877;28;20390;-93
2023/03/21 05:28:11;;;;;;;67.13;26.77;;;9.60;99.90;;;;;;5069400;28;20497;-92
2023/03/21 05:30:37;;;;;;;68.13;26.90;;;9.60;99.90;;;;;;5068689;28;20402;-93
2023/03/21 05:33:03;;;;;;;69.17;27.03;;;9.50;99.90;;;;;;5070080;28;20438;-92
2023/03/21 05:35:29;;;;;;;73.57;26.98;;;9.30;99.90;;;;;;5085479;28;20410;-92
2023/03/21 05:37:55;;;;;;;58.75;24.38;;;9.50;99.90;;;;;;5086312;28;20429;-93
2023/03/21 05:40:21;;;;;;;60.40;24.97;;;9.30;99.90;;;;;;5068502;28;20413;-92
2023/03/21 05:42:47;;;;;;;54.37;24.40;;;9.70;99.90;;;;;;5085849;28;20417;-93
2023/03/21 05:45:14;;;;;;;63.72;25.38;;;9.60;99.90;;;;;;5086048;28;20401;-92
2023/03/21 05:47:39;;;;;;;54.35;24.42;;;9.40;99.90;;;;;;5085587;28;20402;-92
2023/03/21 05:50:05;;;;;;;52.22;24.00;;;9.60;99.90;;;;;;5086317;28;20402;-93
2023/03/21 05:52:32;;;;;;;57.95;24.42;;;9.60;99.90;;;;;;5068235;28;20415;-92
2023/03/21 05:54:57;;;;;;;63.97;24.83;;;9.70;99.90;;;;;;5069799;28;20467;-92
2023/03/21 05:57:26;;;;;;;62.90;24.33;;;9.70;99.90;;;;;;5084935;28;20433;-92
2023/03/21 05:59:52;;;;;;;61.00;25.48;;;9.60;99.90;;;;;;5085947;28;20398;-93
2023/03/21 06:02:18;;;;;;;57.70;23.85;;;9.40;99.90;;;;;;5068883;28;20409;-93
2023/03/21 06:04:43;;;;;;;63.28;24.58;;;9.60;99.90;;;;;;5068477;28;20395;-92
2023/03/21 06:07:09;;;;;;;58.23;24.50;;;9.50;99.90;;;;;;5068600;28;20937;-91
2023/03/21 06:09:35;;;;;;;56.83;23.17;;;9.80;99.90;;;;;;5085137;28;20497;-92
2023/03/21 06:12:00;;;;;;;61.83;23.88;;;9.60;99.90;;;;;;5069333;28;20475;-92
2023/03/21 06:14:26;;;;;;;67.95;26.50;;;9.70;99.90;;;;;;5084333;28;20406;-92
2023/03/21 06:16:52;;;;;;;55.53;23.63;;;9.90;99.90;;;;;;5085704;28;20422;-93
2023/03/21 06:19:20;;;;;;;72.88;25.70;;;9.70;99.90;;;;;;5067906;28;20398;-92
2023/03/21 06:21:46;;;;;;;63.38;25.00;;;9.70;99.90;;;;;;5085187;28;20398;-91
2023/03/21 06:24:12;;;;;;;68.30;25.95;;;9.90;99.90;;;;;;5085805;28;20801;-91
2023/03/21 06:26:38;;;;;;;66.60;24.63;;;10.10;99.90;;;;;;5085061;28;20398;-92
2023/03/21 06:29:04;;;;;;;66.83;25.27;;;9.80;99.90;;;;;;5086016;28;20400;-92
2023/03/21 06:31:30;;;;;;;66.77;25.47;;;9.60;99.90;;;;;;5083975;28;20758;-90
2023/03/21 06:33:56;;;;;;;72.17;26.70;;;9.70;99.90;;;;;;5069144;28;20402;-94
2023/03/21 06:36:21;;;;;;;62.38;24.27;;;9.90;99.90;;;;;;5067431;28;20418;-92
2023/03/21 06:38:47;;;;;;;69.90;24.90;;;9.70;99.90;;;;;;5068438;28;20402;-92
2023/03/21 06:41:14;;;;;;;69.20;25.60;;;9.80;99.90;;;;;;5067709;28;20417;-93
2023/03/21 06:43:40;;;;;;;76.20;26.33;;;9.80;99.90;;;;;;5084597;28;20406;-92
2023/03/21 06:46:05;;;;;;;59.17;22.87;;;9.80;99.90;;;;;;5085701;28;20422;-93
2023/03/21 06:48:32;;;;;;;45.27;20.63;;;9.80;99.90;;;;;;5084376;28;20405;-94
2023/03/21 06:50:57;;;;;;;56.63;23.17;;;9.70;99.90;;;;;;5086187;28;20904;-91
2023/03/21 06:53:26;;;;;;;62.40;25.63;;;9.80;99.90;;;;;;5067265;28;20849;-92
2023/03/21 06:55:55;;;;;;;61.90;24.85;;;9.90;99.90;;;;;;5085157;28;20402;-91
2023/03/21 06:58:22;;;;;;;62.92;24.63;;;9.80;99.90;;;;;;5084633;28;20418;-93
2023/03/21 07:00:48;;;;;;;53.65;23.33;;;9.70;99.90;;;;;;5067958;28;20757;-92
2023/03/21 07:03:15;;;;;;;57.90;24.80;;;9.90;99.90;;;;;;5084543;28;20390;-92
2023/03/21 07:05:41;;;;;;;54.40;23.63;;;9.90;99.90;;;;;;5084492;28;20398;-92
2023/03/21 07:08:12;;;;;;;45.67;21.13;;;9.90;99.90;;;;;;5068737;28;20799;-94
2023/03/21 07:10:40;;;;;;;52.33;23.73;;;9.80;99.90;;;;;;5083988;28;21159;-91
2023/03/21 07:13:06;;;;;;;42.22;21.30;;;9.80;99.90;;;;;;5085228;28;20398;-91
2023/03/21 07:15:33;;;;;;;57.08;23.80;;;9.80;99.90;;;;;;5084656;28;20405;-92
2023/03/21 07:17:59;;;;;;;45.28;22.55;;;9.90;99.90;;;;;;5067789;28;20418;-92
2023/03/21 07:20:25;;;;;;;50.47;23.52;;;9.80;99.90;;;;;;5084654;28;20908;-92
2023/03/21 07:22:51;;;;;;;37.72;20.88;;;9.90;99.90;;;;;;5084646;28;20786;-92
2023/03/21 07:25:18;;;;;;;47.85;23.60;;;9.90;99.90;;;;;;5084856;28;20480;-93
2023/03/21 07:27:45;;;;;;;40.03;21.70;;;9.80;99.90;;;;;;5083887;28;20409;-91
2023/03/21 07:30:11;;;;;;;35.37;21.10;;;9.70;99.90;;;;;;5085645;28;20412;-94
2023/03/21 07:32:37;;;;;;;39.10;22.73;;;9.70;99.90;;;;;;5083894;28;20413;-91
2023/03/21 07:35:05;;;;;;;40.67;22.88;;;9.80;99.90;;;;;;5084975;28;20485;-92
2023/03/21 07:37:31;;;;;;;35.78;21.92;;;9.80;99.90;;;;;;5083763;28;20464;-92
2023/03/21 07:39:57;;;;;;;35.50;21.05;;;9.90;99.90;;;;;;5067074;28;20390;-92
2023/03/21 07:42:22;;;;;;;36.37;21.10;;;10.00;99.90;;;;;;5069625;28;20402;-93
2023/03/21 07:44:49;;;;;;;36.73;21.10;;;10.10;99.90;;;;;;5088303;28;20412;-92
2023/03/21 07:47:15;;;;;;;34.13;20.38;;;9.90;99.90;;;;;;5088969;28;20392;-92
2023/03/21 07:49:41;;;;;;;35.53;20.25;;;9.90;99.90;;;;;;5069994;28;20425;-92
2023/03/21 07:52:06;;;;;;;30.63;19.85;;;9.90;99.90;;;;;;5071424;28;20406;-93
2023/03/21 07:54:32;;;;;;;31.33;19.97;;;9.80;99.90;;;;;;5070253;28;20477;-92
2023/03/21 07:56:58;;;;;;;36.50;22.07;;;9.80;99.90;;;;;;5087827;28;20433;-93
2023/03/21 07:59:24;;;;;;;32.30;19.60;;;9.50;99.90;;;;;;5087882;28;20441;-92
2023/03/21 08:01:49;;;;;;;29.90;18.63;;;9.90;99.90;;;;;;5070406;28;20905;-94
2023/03/21 08:04:15;;;;;;;34.35;20.40;;;9.90;99.90;;;;;;5071490;28;20483;-92
2023/03/21 08:06:41;;;;;;;31.03;19.30;;;10.00;99.90;;;;;;5070102;28;20398;-92
2023/03/21 08:09:07;;;;;;;28.27;18.57;;;10.00;99.90;;;;;;5071339;28;20413;-92
2023/03/21 08:11:32;;;;;;;27.45;18.05;;;9.90;99.90;;;;;;5070378;28;20405;-93
2023/03/21 08:13:59;;;;;;;27.02;17.67;;;9.90;99.90;;;;;;5087570;28;20851;-91
2023/03/21 08:16:25;;;;;;;27.58;18.15;;;9.90;99.90;;;;;;5086950;28;20430;-93
2023/03/21 08:18:51;;;;;;;34.20;20.17;;;9.90;99.90;;;;;;5070606;28;20405;-93
2023/03/21 08:21:17;;;;;;;38.85;21.42;;;9.90;99.90;;;;;;5070367;28;20837;-92
2023/03/21 08:23:42;;;;;;;30.53;19.70;;;9.90;99.90;;;;;;5070007;28;20406;-93
2023/03/21 08:26:09;;;;;;;35.07;21.33;;;9.90;99.90;;;;;;5071026;28;20493;-91
2023/03/21 08:28:35;;;;;;;30.17;19.70;;;10.00;99.90;;;;;;5086567;28;20493;-92
2023/03/21 08:31:10;;;;;;;31.52;21.25;;;9.90;99.90;;;;;;5070448;28;20499;-94
2023/03/21 08:33:36;;;;;;;32.38;22.08;;;9.90;99.90;;;;;;5087520;28;20459;-92
2023/03/21 08:36:02;;;;;;;37.13;23.58;;;9.80;99.90;;;;;;5070323;28;20897;-91
2023/03/21 08:38:30;;;;;;;50.00;26.75;;;9.90;99.90;;;;;;5087442;28;20928;-92
2023/03/21 08:40:56;;;;;;;34.20;22.73;;;9.90;99.90;;;;;;5086867;28;20394;-91
2023/03/21 08:43:22;;;;;;;30.65;21.17;;;10.10;99.90;;;;;;5070729;28;20455;-92
2023/03/21 08:45:48;;;;;;;36.27;23.50;;;10.00;99.90;;;;;;5086274;28;20398;-91
2023/03/21 08:48:14;;;;;;;35.05;23.95;;;10.00;99.90;;;;;;5087847;28;20413;-91
2023/03/21 08:50:40;;;;;;;34.22;23.58;;;10.00;99.90;;;;;;5086736;28;20422;-92
2023/03/21 08:53:05;;;;;;;32.77;25.07;;;10.20;99.90;;;;;;5086927;28;20486;-92
2023/03/21 08:55:32;;;;;;;35.77;24.60;;;10.30;99.90;;;;;;5086365;28;20394;-91
2023/03/21 08:57:58;;;;;;;37.57;27.27;;;10.20;99.90;;;;;;5086073;28;20425;-93
2023/03/21 09:00:24;;;;;;;41.58;29.02;;;10.10;99.90;;;;;;5070045;28;20406;-93
2023/03/21 09:02:51;;;;;;;46.00;30.40;;;10.00;99.90;;;;;;5068959;28;20390;-93
2023/03/21 09:05:18;;;;;;;41.97;30.25;;;10.10;99.90;;;;;;5087514;28;20443;-93
2023/03/21 09:07:44;;;;;;;40.53;30.20;;;10.10;99.90;;;;;;5085203;28;20399;-92
2023/03/21 09:10:14;;;;;;;39.95;30.05;;;10.20;99.90;;;;;;5087373;28;20402;-93
2023/03/21 09:12:40;;;;;;;33.50;26.83;;;10.30;99.90;;;;;;5068846;28;20685;-94
2023/03/21 09:15:07;;;;;;;40.73;30.63;;;10.00;99.90;;;;;;5086115;28;20505;-92
2023/03/21 09:17:33;;;;;;;43.87;32.50;;;10.10;99.90;;;;;;5069251;28;20924;-92
2023/03/21 09:19:59;;;;;;;52.23;35.00;;;10.10;99.90;;;;;;5085397;28;20417;-93
2023/03/21 09:22:26;;;;;;;46.85;32.72;;;10.30;99.90;;;;;;5087397;28;20425;-91
2023/03/21 09:24:52;;;;;;;34.50;26.40;;;10.30;99.90;;;;;;5085841;28;20463;-93
2023/03/21 09:27:22;;;;;;;29.67;26.08;;;10.10;99.90;;;;;;5069791;28;20433;-92
2023/03/21 09:29:49;;;;;;;36.63;27.90;;;11.00;99.90;;;;;;5085882;28;20406;-93
2023/03/21 09:32:17;;;;;;;36.55;28.60;;;10.50;99.90;;;;;;5085742;28;20394;-93
2023/03/21 09:34:43;;;;;;;38.22;29.63;;;10.70;99.90;;;;;;5085426;28;20429;-93
2023/03/21 09:37:12;;;;;;;41.42;32.28;;;10.30;99.90;;;;;;5085416;28;20422;-94
2023/03/21 09:39:40;;;;;;;38.38;31.05;;;10.40;99.90;;;;;;5086316;28;20409;-92
2023/03/21 09:42:31;;;;;;;38.85;31.13;;;10.30;99.90;;;;;;5084816;28;20403;-93
2023/03/21 09:45:18;;;;;;;40.38;31.67;;;10.30;99.90;;;;;;5086356;28;20742;-91
2023/03/21 09:47:52;;;;;;;42.33;33.28;;;10.30;99.90;;;;;;5085715;28;20991;-90
2023/03/21 09:50:30;;;;;;;40.13;31.50;;;10.30;99.90;;;;;;5085061;28;20459;-90
2023/03/21 09:53:08;;;;;;;38.92;31.17;;;10.30;99.90;;;;;;5086527;28;20442;-90
2023/03/21 09:55:37;;;;;;;43.70;32.03;;;10.30;99.90;;;;;;5068154;28;20425;-91
2023/03/21 09:58:24;;;;;;;48.13;34.85;;;10.10;99.90;;;;;;5085778;28;20430;-92
2023/03/21 10:00:58;;;;;;;39.25;30.40;;;10.40;99.90;;;;;;5085268;28;20442;-94
2023/03/21 10:03:33;;;;;;;40.50;31.15;;;10.40;99.90;;;;;;5085042;28;20788;-92
2023/03/21 10:06:07;;;;;;;49.22;35.38;;;10.30;99.90;;;;;;5086080;28;21000;-93
2023/03/21 10:08:36;;;;;;;44.50;31.73;;;10.20;99.90;;;;;;5084840;28;20410;-93
2023/03/21 10:11:14;;;;;;;43.85;30.20;;;10.40;99.90;;;;;;5068686;28;20489;-91
2023/03/21 10:13:53;;;;;;;38.85;28.63;;;10.30;99.90;;;;;;5085393;28;20500;-93
2023/03/21 10:16:27;;;;;;;41.60;29.55;;;10.40;99.90;;;;;;5084648;28;20421;-93
2023/03/21 10:18:54;;;;;;;35.42;25.23;;;10.50;99.90;;;;;;5069130;28;20393;-92
2023/03/21 10:21:27;;;;;;;32.90;24.00;;;10.30;99.90;;;;;;5084470;28;20399;-93
2023/03/21 10:23:56;;;;;;;35.70;26.55;;;10.70;99.90;;;;;;5085617;28;20492;-92
2023/03/21 10:26:26;;;;;;;33.38;24.67;;;11.20;99.90;;;;;;5085381;28;20761;-92
2023/03/21 10:28:54;;;;;;;31.65;25.02;;;11.10;99.90;;;;;;5084658;28;20481;-93
2023/03/21 10:31:27;;;;;;;28.50;21.23;;;11.30;99.90;;;;;;5085167;28;20402;-92
2023/03/21 10:33:57;;;;;;;29.38;22.23;;;11.10;99.90;;;;;;5083662;28;20401;-93
2023/03/21 10:36:26;;;;;;;26.67;21.20;;;11.10;99.90;;;;;;5085613;28;20505;-91
2023/03/21 10:38:56;;;;;;;30.48;22.75;;;11.00;99.90;;;;;;5084060;28;20390;-93
2023/03/21 10:41:21;;;;;;;32.90;23.17;;;11.00;99.90;;;;;;5084763;28;20416;-92
2023/03/21 10:44:06;;;;;;;26.77;20.17;;;11.00;99.90;;;;;;5084652;28;20398;-93
2023/03/21 10:46:33;;;;;;;25.85;19.02;;;11.10;99.90;;;;;;5084642;28;20788;-94
2023/03/21 10:48:59;;;;;;;24.70;18.92;;;11.60;99.90;;;;;;5085235;28;20394;-93
2023/03/21 10:51:29;;;;;;;21.67;16.98;;;11.60;99.90;;;;;;5083490;28;20395;-93
2023/03/21 10:53:59;;;;;;;21.88;16.35;;;11.60;99.90;;;;;;5069784;28;20476;-94
2023/03/21 10:56:30;;;;;;;20.08;15.85;;;11.70;99.90;;;;;;5083724;28;20422;-92
2023/03/21 10:58:59;;;;;;;20.60;15.90;;;11.80;99.90;;;;;;5084624;28;20398;-91
2023/03/21 11:01:42;;;;;;;18.42;14.00;;;11.90;99.90;;;;;;5084698;28;20398;-94
2023/03/21 11:04:15;;;;;;;17.10;13.55;;;11.90;99.90;;;;;;5083730;28;20908;-93
2023/03/21 11:06:44;;;;;;;16.38;13.48;;;12.50;99.90;;;;;;5085418;28;20398;-93
2023/03/21 11:09:20;;;;;;;18.20;13.50;;;12.10;99.90;;;;;;5083747;28;20402;-92
2023/03/21 11:12:10;;;;;;;15.63;12.23;;;11.90;99.90;;;;;;5084859;28;20482;-92
2023/03/21 11:14:41;;;;;;;16.30;11.55;;;12.20;99.90;;;;;;5084597;28;20801;-92
2023/03/21 11:17:16;;;;;;;17.57;13.03;;;11.90;99.90;;;;;;5084900;28;20422;-94
2023/03/21 11:19:48;;;;;;;17.52;12.40;;;12.00;99.90;;;;;;5089618;28;20401;-93
2023/03/21 11:22:14;;;;;;;14.00;10.80;;;12.00;99.90;;;;;;5088464;28;20415;-93
2023/03/21 11:24:44;;;;;;;12.77;10.75;;;11.70;99.90;;;;;;5088669;28;20830;-94
2023/03/21 11:27:10;;;;;;;16.27;11.07;;;12.00;99.90;;;;;;5071462;28;20398;-94
2023/03/21 11:29:40;;;;;;;13.63;11.00;;;12.00;99.90;;;;;;5088112;28;20416;-92
2023/03/21 11:32:11;;;;;;;15.33;10.53;;;11.80;99.90;;;;;;5088649;28;20434;-93
2023/03/21 11:34:49;;;;;;;15.00;10.73;;;12.00;99.90;;;;;;5087817;28;20414;-93
2023/03/21 11:37:25;;;;;;;14.75;11.23;;;12.10;99.90;;;;;;5088868;28;20421;-93
2023/03/21 11:39:55;;;;;;;16.38;10.98;;;12.10;99.90;;;;;;5088192;28;20420;-93
2023/03/21 11:42:30;;;;;;;15.23;11.40;;;12.30;99.90;;;;;;5088097;28;20920;-93
2023/03/21 11:45:10;;;;;;;15.60;12.23;;;12.10;99.90;;;;;;5088224;28;20451;-93
2023/03/21 11:47:37;;;;;;;15.90;11.30;;;12.10;99.90;;;;;;5087391;28;20452;-93
2023/03/21 11:50:29;;;;;;;16.80;12.07;;;12.30;99.90;;;;;;5089110;28;20386;-94
2023/03/21 11:53:15;;;;;;;15.75;10.60;;;12.20;99.90;;;;;;5060311;28;21021;-94
2023/03/21 11:55:51;;;;;;;15.13;11.35;;;12.20;99.90;;;;;;5087985;28;20406;-94
2023/03/21 11:58:51;;;;;;;16.67;10.63;;;12.20;99.90;;;;;;5088852;28;20859;-92
2023/03/21 12:01:38;;;;;;;13.48;11.18;;;12.10;99.90;;;;;;5070516;28;20410;-92
2023/03/21 12:04:41;;;;;;;15.65;11.52;;;12.10;99.90;;;;;;5070827;28;20506;-93
2023/03/21 12:07:21;;;;;;;14.50;10.63;;;12.10;99.90;;;;;;5088575;28;20412;-94
2023/03/21 12:10:09;;;;;;;14.45;10.57;;;12.00;99.90;;;;;;5070659;28;20765;-93
2023/03/21 12:12:46;;;;;;;14.65;11.23;;;12.00;99.90;;;;;;5070673;28;20421;-94
2023/03/21 12:15:46;;;;;;;15.35;11.27;;;12.20;99.90;;;;;;5071163;28;20414;-93
2023/03/21 12:18:34;;;;;;;14.77;11.30;;;12.00;99.90;;;;;;5086868;28;20429;-92
2023/03/21 12:21:19;;;;;;;15.30;11.15;;;12.10;99.90;;;;;;5087643;28;20441;-94
2023/03/21 12:24:04;;;;;;;12.67;9.90;;;12.20;99.90;;;;;;5087380;28;20543;-92
2023/03/21 12:27:05;;;;;;;15.65;10.75;;;11.60;99.90;;;;;;5086594;28;20402;-93
2023/03/21 12:29:52;;;;;;;14.27;10.25;;;12.00;99.90;;;;;;5060034;28;20464;-93
2023/03/21 12:32:31;;;;;;;14.70;10.68;;;12.00;99.90;;;;;;5087412;28;20460;-92
2023/03/21 12:35:08;;;;;;;13.60;10.77;;;12.00;99.90;;;;;;5070050;28;20402;-94
2023/03/21 12:37:42;;;;;;;14.48;10.30;;;12.00;99.90;;;;;;5070923;28;20457;-92
2023/03/21 12:40:24;;;;;;;14.60;10.50;;;12.00;99.90;;;;;;5086685;28;20402;-92
2023/03/21 12:43:12;;;;;;;13.65;10.10;;;12.00;99.90;;;;;;5087415;28;20414;-94
2023/03/21 12:45:43;;;;;;;14.65;10.48;;;12.20;99.90;;;;;;5070136;28;20410;-93